Time;durP1;ratioP1;P1;durP2;ratioP2;P2;SDS_P1;SDS_P2;PMS_P1;PMS_P2;Temp;Humidity;BMP_temperature;BMP_pressure;BME280_temperature;BME280_humidity;BME280_pressure;Samples;Min_cycle;Max_cycle;Signal;HPM_P1;HPM_P2
2021/07/02 00:01:49;;;;;;;50.00;25.90;;;15.90;94.00;;;;;;5018681;28;20154;-93
2021/07/02 00:04:18;;;;;;;53.22;25.40;;;15.90;94.00;;;;;;5018854;28;20188;-93
2021/07/02 00:06:45;;;;;;;49.35;24.10;;;15.80;94.00;;;;;;5018594;28;20191;-94
2021/07/02 00:09:10;;;;;;;49.45;24.00;;;15.80;94.00;;;;;;5018477;28;20491;-94
2021/07/02 00:11:36;;;;;;;53.72;23.95;;;15.80;94.00;;;;;;5034714;28;20161;-94
2021/07/02 00:14:04;;;;;;;49.75;24.70;;;15.80;93.90;;;;;;5018441;28;20170;-93
2021/07/02 00:16:30;;;;;;;50.65;24.90;;;15.80;93.90;;;;;;5034784;28;20170;-93
2021/07/02 00:18:56;;;;;;;44.60;24.08;;;15.80;93.90;;;;;;5018129;28;20210;-94
2021/07/02 00:21:21;;;;;;;41.33;24.05;;;15.80;93.90;;;;;;5034566;28;20168;-95
2021/07/02 00:23:47;;;;;;;47.35;23.83;;;15.80;93.90;;;;;;5034636;28;20196;-95
2021/07/02 00:26:13;;;;;;;49.75;25.27;;;15.80;94.00;;;;;;5034515;28;20162;-95
2021/07/02 00:28:39;;;;;;;51.78;24.52;;;15.80;94.00;;;;;;5034596;28;20195;-94
2021/07/02 00:31:04;;;;;;;46.70;23.52;;;15.90;94.00;;;;;;5034546;28;20158;-95
2021/07/02 00:33:30;;;;;;;53.55;25.15;;;15.90;94.00;;;;;;5034475;28;20162;-95
2021/07/02 00:35:56;;;;;;;47.88;22.77;;;15.90;94.00;;;;;;5034409;28;20159;-96
2021/07/02 00:38:24;;;;;;;37.38;20.60;;;15.90;93.90;;;;;;5034223;28;20214;-96
2021/07/02 00:40:58;;;;;;;41.88;21.55;;;15.90;93.90;;;;;;5034209;28;20196;-96
2021/07/02 00:43:23;;;;;;;44.10;23.50;;;15.90;93.80;;;;;;5027872;28;20190;-93
2021/07/02 00:45:49;;;;;;;49.38;23.52;;;15.80;93.80;;;;;;5029569;28;20172;-92
2021/07/02 00:48:15;;;;;;;47.73;22.10;;;15.80;93.70;;;;;;5034221;28;20228;-93
2021/07/02 00:50:43;;;;;;;41.50;21.92;;;15.80;93.70;;;;;;5034280;28;20222;-94
2021/07/02 00:53:09;;;;;;;49.40;21.80;;;15.80;93.60;;;;;;5017902;28;20186;-94
2021/07/02 00:55:35;;;;;;;42.45;20.98;;;15.80;93.50;;;;;;5017641;28;20165;-93
2021/07/02 00:58:00;;;;;;;37.17;20.80;;;15.80;93.40;;;;;;5033996;28;20198;-92
2021/07/02 01:00:26;;;;;;;37.23;21.40;;;15.80;93.40;;;;;;5017121;28;20218;-93
2021/07/02 01:02:52;;;;;;;45.87;21.40;;;15.80;93.30;;;;;;5034009;28;20185;-94
2021/07/02 01:05:18;;;;;;;47.13;20.23;;;15.70;93.20;;;;;;5033917;28;20173;-94
2021/07/02 01:07:47;;;;;;;52.57;22.47;;;15.70;93.20;;;;;;5017601;28;20182;-94
2021/07/02 01:10:16;;;;;;;41.17;21.40;;;15.60;93.20;;;;;;5017552;28;20163;-94
2021/07/02 01:12:42;;;;;;;53.13;22.13;;;15.60;93.20;;;;;;5034008;27;21375;-94
2021/07/02 01:15:19;;;;;;;46.77;22.03;;;15.60;93.20;;;;;;5033872;28;20218;-94
2021/07/02 01:17:47;;;;;;;40.73;21.20;;;15.60;93.30;;;;;;5017414;28;20178;-94
2021/07/02 01:20:16;;;;;;;39.00;19.60;;;15.50;93.30;;;;;;5033710;28;20190;-93
2021/07/02 01:22:44;;;;;;;38.63;20.30;;;15.50;93.20;;;;;;5017472;28;20151;-95
2021/07/02 01:25:11;;;;;;;43.40;19.60;;;15.40;93.20;;;;;;5017340;28;20159;-95
2021/07/02 01:27:37;;;;;;;41.90;20.60;;;15.40;93.20;;;;;;5017299;28;20221;-94
2021/07/02 01:30:05;;;;;;;39.43;20.03;;;15.40;93.20;;;;;;5017292;28;20162;-96
2021/07/02 01:32:31;;;;;;;41.67;20.80;;;15.30;93.20;;;;;;5017242;28;20151;-93
2021/07/02 01:35:07;;;;;;;;;;;;;;;;;;;;;
2021/07/02 01:37:46;;;;;;;;;;;;;;;;;;;;;
2021/07/02 01:40:38;;;;;;;38.67;19.27;;;15.30;93.10;;;;;;5017510;28;20212;-94
2021/07/02 01:43:04;;;;;;;44.27;19.37;;;15.20;93.00;;;;;;5017096;28;20158;-94
2021/07/02 01:45:30;;;;;;;30.48;17.33;;;15.20;93.00;;;;;;5033409;28;20170;-94
2021/07/02 01:47:59;;;;;;;33.97;17.17;;;15.20;93.00;;;;;;5033281;28;20174;-95
2021/07/02 01:50:58;;;;;;;38.80;16.77;;;15.20;92.90;;;;;;5016864;28;20154;-96
2021/07/02 01:53:55;;;;;;;36.50;16.73;;;15.20;92.90;;;;;;5038787;28;20162;-96
2021/07/02 05:44:53;;;;;;;48.97;30.75;;;16.00;93.00;;;;;;5054658;28;20455;-92
2021/07/02 05:47:22;;;;;;;45.30;29.17;;;16.00;92.80;;;;;;5042100;28;20207;-92
2021/07/02 05:49:48;;;;;;;36.35;25.40;;;16.10;92.80;;;;;;5041160;28;20246;-92
2021/07/02 05:52:13;;;;;;;43.08;25.08;;;16.10;92.40;;;;;;5042417;28;20184;-91
2021/07/02 05:54:39;;;;;;;40.87;24.90;;;16.00;92.30;;;;;;5042154;28;20175;-94
2021/07/02 05:57:05;;;;;;;44.60;25.65;;;16.10;92.40;;;;;;5041635;28;20184;-91
2021/07/02 05:59:30;;;;;;;37.92;23.83;;;16.20;92.40;;;;;;5041077;28;20188;-92
2021/07/02 06:01:56;;;;;;;45.72;25.55;;;16.20;92.30;;;;;;5042346;28;20228;-92
2021/07/02 06:04:21;;;;;;;40.83;25.10;;;16.20;92.10;;;;;;5042481;28;20173;-94
2021/07/02 06:06:48;;;;;;;38.80;23.88;;;16.30;92.20;;;;;;5042706;28;20161;-92
2021/07/02 06:09:14;;;;;;;39.40;23.45;;;16.30;92.20;;;;;;5042558;28;20173;-93
2021/07/02 06:11:40;;;;;;;37.55;22.30;;;16.40;92.00;;;;;;5042483;28;20187;-92
2021/07/02 06:14:06;;;;;;;36.95;23.90;;;16.30;91.50;;;;;;5042570;28;20244;-92
2021/07/02 06:16:32;;;;;;;37.17;22.30;;;16.50;91.90;;;;;;5042424;28;20161;-92
2021/07/02 06:18:57;;;;;;;29.33;19.88;;;16.50;91.70;;;;;;5042333;28;20200;-94
2021/07/02 06:21:23;;;;;;;32.22;20.52;;;16.50;91.00;;;;;;5042207;28;20219;-95
2021/07/02 06:23:49;;;;;;;41.15;22.83;;;16.60;91.10;;;;;;5042329;28;20156;-95
2021/07/02 06:26:16;;;;;;;36.22;22.13;;;16.70;91.60;;;;;;5042176;28;20197;-95
2021/07/02 06:28:42;;;;;;;29.92;20.05;;;16.80;91.00;;;;;;5042181;28;20175;-95
2021/07/02 06:31:07;;;;;;;31.95;21.48;;;16.80;90.60;;;;;;5042104;28;20248;-95
2021/07/02 06:33:33;;;;;;;33.55;22.23;;;16.90;91.00;;;;;;5042094;28;20225;-93
2021/07/02 06:35:59;;;;;;;37.53;23.33;;;17.00;91.20;;;;;;5041829;28;20175;-94
2021/07/02 06:38:25;;;;;;;35.75;20.98;;;17.10;91.50;;;;;;5041684;28;20181;-92
2021/07/02 06:40:52;;;;;;;30.42;20.60;;;17.10;90.60;;;;;;5041821;28;20273;-96
2021/07/02 06:43:18;;;;;;;31.58;21.30;;;17.00;90.30;;;;;;5094134;23;20202;-96
2021/07/02 06:45:43;;;;;;;32.23;21.13;;;17.00;90.60;;;;;;5098100;28;20436;-94
2021/07/02 06:58:30;;;;;;;28.48;19.70;;;17.30;90.20;;;;;;2928221;22;20229;-92
2021/07/02 07:00:56;;;;;;;22.10;16.65;;;17.30;89.90;;;;;;5077830;28;20214;-91
2021/07/02 07:03:22;;;;;;;35.55;19.08;;;17.30;89.50;;;;;;5081543;28;20183;-93
2021/07/02 07:05:49;;;;;;;24.80;16.38;;;17.50;89.90;;;;;;5080702;28;20174;-92
2021/07/02 07:08:15;;;;;;;32.10;17.65;;;17.50;89.30;;;;;;5081726;28;20183;-91
2021/07/02 07:10:40;;;;;;;25.27;18.35;;;17.50;88.70;;;;;;5079842;28;20178;-92
2021/07/02 07:13:06;;;;;;;33.08;18.92;;;17.50;88.70;;;;;;5081345;28;20191;-93
2021/07/02 07:15:33;;;;;;;26.17;17.70;;;17.60;89.40;;;;;;5080748;28;20187;-93
2021/07/02 07:17:58;;;;;;;29.52;18.40;;;17.70;89.50;;;;;;5080855;28;20186;-94
2021/07/02 07:20:24;;;;;;;24.45;17.27;;;17.70;88.90;;;;;;5081581;28;20191;-94
2021/07/02 07:22:50;;;;;;;29.13;17.80;;;17.80;89.10;;;;;;5081654;28;20148;-94
2021/07/02 07:25:16;;;;;;;28.15;17.30;;;17.80;88.60;;;;;;5081587;28;20209;-93
2021/07/02 07:27:44;;;;;;;26.67;16.08;;;17.80;88.50;;;;;;5080032;28;20272;-91
2021/07/02 07:30:10;;;;;;;21.02;16.17;;;17.90;88.30;;;;;;5078802;28;20189;-92
2021/07/02 07:32:37;;;;;;;27.40;16.67;;;18.10;88.10;;;;;;5081506;28;20175;-92
2021/07/02 07:35:17;;;;;;;22.90;15.18;;;18.20;87.80;;;;;;5081504;28;20191;-93
2021/07/02 07:37:44;;;;;;;26.45;14.73;;;18.30;87.10;;;;;;5081521;28;20179;-94
2021/07/02 07:40:10;;;;;;;20.73;14.00;;;18.30;86.10;;;;;;5081262;28;20198;-93
2021/07/02 07:42:36;;;;;;;18.10;12.02;;;18.30;86.40;;;;;;5081419;28;20176;-92
2021/07/02 07:45:02;;;;;;;22.67;11.35;;;18.40;85.00;;;;;;5081516;28;20160;-94
2021/07/02 07:47:28;;;;;;;23.85;13.10;;;18.40;84.80;;;;;;5081318;28;20210;-95
2021/07/02 07:49:54;;;;;;;19.75;14.45;;;18.50;86.10;;;;;;5081325;28;20163;-94
2021/07/02 07:52:35;;;;;;;;;;;;;;;;;;;;;
2021/07/02 07:55:02;;;;;;;23.27;13.90;;;18.70;85.90;;;;;;5095687;28;20178;-93
2021/07/02 07:57:28;;;;;;;24.25;14.70;;;18.40;84.80;;;;;;5083331;28;20184;-96
2021/07/02 07:59:53;;;;;;;21.10;13.40;;;18.50;85.70;;;;;;5084659;28;20206;-91
2021/07/02 08:02:19;;;;;;;16.92;12.68;;;18.40;84.70;;;;;;5084916;28;20175;-96
2021/07/02 08:04:44;;;;;;;22.70;13.45;;;18.20;84.20;;;;;;5084768;28;20189;-95
2021/07/02 08:07:15;;;;;;;18.63;13.15;;;18.20;85.60;;;;;;5084759;28;20156;-95
2021/07/02 08:09:42;;;;;;;20.80;14.30;;;18.40;85.70;;;;;;5082839;28;20163;-92
2021/07/02 08:12:08;;;;;;;18.88;12.90;;;18.50;85.20;;;;;;5084612;28;20152;-92
2021/07/02 08:14:34;;;;;;;17.60;12.32;;;18.80;85.40;;;;;;5084613;28;20191;-94
2021/07/02 08:17:00;;;;;;;36.42;10.38;;;19.00;84.60;;;;;;5084667;28;20155;-94
2021/07/02 08:19:25;;;;;;;16.85;10.25;;;19.20;82.70;;;;;;5084452;28;20250;-93
2021/07/02 08:21:51;;;;;;;18.75;10.75;;;19.20;80.80;;;;;;5084565;28;20168;-94
2021/07/02 08:24:16;;;;;;;17.42;11.77;;;19.20;82.70;;;;;;5084460;28;20259;-95
2021/07/02 08:26:43;;;;;;;16.50;11.07;;;19.10;81.20;;;;;;5084473;28;20206;-94
2021/07/02 08:29:25;;;;;;;18.38;11.10;;;19.10;82.40;;;;;;5084491;28;20179;-95
2021/07/02 08:31:51;;;;;;;15.77;11.20;;;19.20;81.40;;;;;;5084391;28;20164;-95
2021/07/02 08:34:17;;;;;;;15.48;11.77;;;19.50;82.70;;;;;;5084190;28;20166;-96
2021/07/02 08:36:43;;;;;;;17.83;10.25;;;19.80;82.00;;;;;;5084297;28;20152;-95
2021/07/02 08:39:10;;;;;;;16.23;9.23;;;19.80;80.80;;;;;;5084154;28;20179;-94
2021/07/02 08:41:37;;;;;;;13.05;8.50;;;19.70;78.50;;;;;;5084234;28;20490;-93
2021/07/02 08:44:03;;;;;;;13.55;9.63;;;19.50;78.40;;;;;;5084166;28;20167;-94
2021/07/02 08:46:29;;;;;;;12.52;9.77;;;19.30;79.70;;;;;;5084024;28;20183;-93
2021/07/02 08:48:55;;;;;;;16.20;9.77;;;19.30;80.90;;;;;;5083982;28;20204;-93
2021/07/02 08:51:20;;;;;;;13.02;10.07;;;19.30;80.60;;;;;;5083716;28;20160;-94
2021/07/02 08:53:46;;;;;;;16.33;9.73;;;19.20;80.10;;;;;;5084077;28;20178;-94
2021/07/02 08:56:12;;;;;;;16.10;11.63;;;19.20;80.40;;;;;;5083932;28;20155;-93
2021/07/02 08:58:38;;;;;;;17.20;10.60;;;19.50;82.00;;;;;;5083738;28;20268;-94
2021/07/02 09:01:08;;;;;;;14.30;10.85;;;19.40;80.60;;;;;;5083698;28;20211;-93
2021/07/02 09:03:40;;;;;;;16.42;9.88;;;19.60;80.40;;;;;;5083681;28;20163;-93
2021/07/02 09:06:08;;;;;;;14.73;10.18;;;20.00;80.40;;;;;;5083253;28;20175;-93
2021/07/02 09:08:35;;;;;;;12.75;9.45;;;20.20;80.90;;;;;;5083369;28;20179;-93
2021/07/02 09:11:02;;;;;;;15.57;9.77;;;19.80;78.50;;;;;;5083517;28;20167;-92
2021/07/02 09:13:41;;;;;;;17.02;10.35;;;19.80;79.00;;;;;;5083589;28;20147;-94
2021/07/02 09:16:26;;;;;;;14.75;10.25;;;19.70;80.50;;;;;;5083580;28;20219;-92
2021/07/02 09:18:53;;;;;;;16.85;11.40;;;19.80;79.90;;;;;;5083356;28;20164;-92
2021/07/02 09:21:26;;;;;;;17.67;11.30;;;20.20;79.90;;;;;;5083435;28;20254;-92
2021/07/02 09:23:52;;;;;;;17.33;10.43;;;20.60;79.40;;;;;;5083023;28;20159;-90
2021/07/02 09:26:38;;;;;;;13.07;10.25;;;20.40;77.10;;;;;;5083291;28;20188;-92
2021/07/02 09:29:24;;;;;;;18.55;10.30;;;20.70;78.00;;;;;;5083313;28;20206;-91
2021/07/02 09:31:58;;;;;;;16.63;10.18;;;20.60;75.70;;;;;;5083194;28;20235;-93
2021/07/02 09:34:51;;;;;;;14.45;10.10;;;20.50;77.40;;;;;;5083224;28;20151;-94
2021/07/02 09:37:30;;;;;;;12.77;10.02;;;20.70;77.80;;;;;;5083096;28;20231;-91
2021/07/02 09:39:56;;;;;;;14.23;9.55;;;20.60;78.70;;;;;;5082946;28;20203;-92
2021/07/02 09:42:29;;;;;;;18.85;10.85;;;20.60;75.80;;;;;;5083078;28;20243;-94
2021/07/02 09:45:09;;;;;;;12.25;9.52;;;21.10;77.90;;;;;;5082859;28;20176;-93
2021/07/02 09:47:35;;;;;;;14.15;10.25;;;20.90;76.80;;;;;;5081142;28;20184;-90
2021/07/02 09:50:13;;;;;;;14.15;9.68;;;20.80;76.40;;;;;;5082848;28;20160;-92
2021/07/02 09:52:44;;;;;;;14.57;9.18;;;20.80;74.80;;;;;;5082751;28;20170;-92
2021/07/02 09:55:10;;;;;;;17.85;8.98;;;20.70;75.60;;;;;;5082682;28;20159;-93
2021/07/02 09:57:36;;;;;;;14.18;9.98;;;20.60;74.60;;;;;;5082451;28;20315;-94
2021/07/02 10:00:09;;;;;;;21.67;12.10;;;20.60;76.20;;;;;;5082683;28;20183;-92
2021/07/02 10:02:35;;;;;;;15.27;9.63;;;20.40;77.00;;;;;;5082634;28;20156;-92
2021/07/02 10:05:02;;;;;;;17.30;10.25;;;20.30;76.90;;;;;;5082446;28;20166;-92
2021/07/02 10:07:28;;;;;;;17.30;10.02;;;20.40;77.20;;;;;;5082504;28;20183;-94
2021/07/02 10:09:54;;;;;;;12.10;9.70;;;20.70;77.30;;;;;;5082521;28;20155;-94
2021/07/02 10:12:21;;;;;;;13.90;9.68;;;20.90;75.40;;;;;;5082451;28;20193;-93
2021/07/02 10:14:49;;;;;;;18.25;10.45;;;21.10;76.00;;;;;;5082436;28;20293;-92
2021/07/02 10:17:17;;;;;;;15.00;12.15;;;21.00;72.80;;;;;;5081470;28;20183;-93
2021/07/02 10:19:44;;;;;;;15.50;11.93;;;20.50;76.10;;;;;;5082010;28;20213;-93
2021/07/02 10:22:10;;;;;;;15.35;10.63;;;21.00;76.20;;;;;;5082176;28;20155;-91
2021/07/02 10:24:38;;;;;;;15.85;11.57;;;21.40;75.60;;;;;;5081991;28;20158;-93
2021/07/02 10:27:04;;;;;;;17.63;10.32;;;21.40;75.30;;;;;;5082302;28;20153;-91
2021/07/02 10:29:32;;;;;;;15.25;9.63;;;21.20;72.50;;;;;;5082150;28;20172;-92
2021/07/02 10:31:58;;;;;;;10.48;8.68;;;21.60;71.90;;;;;;5082035;28;20255;-92
2021/07/02 10:34:25;;;;;;;15.10;10.75;;;21.60;72.10;;;;;;5081792;28;20166;-95
2021/07/02 10:36:50;;;;;;;17.00;11.52;;;22.10;73.10;;;;;;5081987;28;20201;-92
2021/07/02 10:39:31;;;;;;;17.98;12.38;;;21.80;70.00;;;;;;5079778;28;20184;-90
2021/07/02 10:42:07;;;;;;;10.90;8.55;;;21.40;73.50;;;;;;5080391;28;20160;-92
2021/07/02 10:44:33;;;;;;;10.30;8.60;;;21.60;71.80;;;;;;5079072;28;20155;-91
2021/07/02 10:47:03;;;;;;;13.02;8.88;;;21.70;68.30;;;;;;5079656;28;20178;-94
2021/07/02 10:49:39;;;;;;;10.52;8.40;;;21.80;69.80;;;;;;5081881;28;20176;-92
2021/07/02 10:52:25;;;;;;;14.00;9.13;;;22.30;69.20;;;;;;5081644;28;20182;-92
2021/07/02 10:54:53;;;;;;;13.27;8.77;;;22.00;67.90;;;;;;5081695;28;20171;-91
2021/07/02 10:57:24;;;;;;;14.30;9.63;;;21.60;71.40;;;;;;5080996;28;20163;-91
2021/07/02 10:59:50;;;;;;;13.52;9.70;;;21.80;69.80;;;;;;5081304;28;20183;-93
2021/07/02 11:02:20;;;;;;;14.80;9.07;;;21.80;71.50;;;;;;5081256;28;20185;-91
2021/07/02 11:04:46;;;;;;;12.80;9.10;;;21.10;68.90;;;;;;5081666;28;20258;-91
2021/07/02 11:07:15;;;;;;;14.73;8.80;;;21.30;73.10;;;;;;5081436;28;20167;-92
2021/07/02 11:09:50;;;;;;;10.68;8.23;;;21.70;71.40;;;;;;5081256;28;20193;-93
2021/07/02 11:12:16;;;;;;;13.68;7.50;;;21.70;69.50;;;;;;5079590;28;20263;-91
2021/07/02 11:14:51;;;;;;;13.70;8.93;;;21.40;67.20;;;;;;5079967;28;20171;-92
2021/07/02 11:17:37;;;;;;;12.25;7.85;;;21.60;71.30;;;;;;5075887;28;20245;-91
2021/07/02 11:20:17;;;;;;;11.63;7.70;;;21.80;66.70;;;;;;5070382;28;20199;-91
2021/07/02 11:22:48;;;;;;;14.23;7.82;;;21.70;68.20;;;;;;5080907;28;20163;-91
2021/07/02 11:25:23;;;;;;;13.82;8.13;;;21.90;69.50;;;;;;5081165;28;20187;-91
2021/07/02 11:27:56;;;;;;;12.07;7.53;;;22.10;68.40;;;;;;5080687;28;20203;-91
2021/07/02 11:30:40;;;;;;;13.18;7.93;;;22.20;67.40;;;;;;5083621;28;20151;-93
2021/07/02 11:33:08;;;;;;;12.93;9.32;;;22.20;68.10;;;;;;5074661;28;20183;-90
2021/07/02 11:35:36;;;;;;;16.05;9.70;;;22.00;68.90;;;;;;5065252;28;20187;-91
2021/07/02 11:38:10;;;;;;;14.60;9.43;;;21.60;67.90;;;;;;5059794;28;20195;-90
2021/07/02 11:40:49;;;;;;;12.82;9.05;;;21.50;69.70;;;;;;5060886;28;20221;-90
2021/07/02 11:43:20;;;;;;;14.27;8.20;;;21.20;69.40;;;;;;5061789;28;20195;-91
2021/07/02 11:45:56;;;;;;;13.70;9.70;;;21.20;70.20;;;;;;5060509;28;20254;-89
2021/07/02 11:48:25;;;;;;;15.45;9.00;;;21.70;70.80;;;;;;5076449;28;20686;-88
2021/07/02 11:50:56;;;;;;;16.55;8.65;;;22.00;70.00;;;;;;5058595;28;20183;-88
2021/07/02 11:53:34;;;;;;;16.10;9.82;;;21.70;67.80;;;;;;5058611;28;20171;-88
2021/07/02 11:56:05;;;;;;;16.67;9.38;;;21.60;69.10;;;;;;5058966;28;20172;-88
2021/07/02 11:58:36;;;;;;;12.00;8.35;;;21.70;70.10;;;;;;5076449;28;20701;-88
2021/07/02 12:01:12;;;;;;;11.52;8.13;;;21.80;69.30;;;;;;5058657;28;20195;-88
2021/07/02 12:03:43;;;;;;;13.70;9.00;;;21.30;68.20;;;;;;5076940;28;20174;-89
2021/07/02 12:06:09;;;;;;;15.10;7.65;;;20.90;70.30;;;;;;5059468;28;20164;-89
2021/07/02 12:08:35;;;;;;;10.35;8.32;;;21.30;69.90;;;;;;5076560;28;20194;-89
2021/07/02 12:11:05;;;;;;;15.63;8.60;;;22.00;69.20;;;;;;5076963;28;20183;-89
2021/07/02 12:13:33;;;;;;;18.75;7.80;;;22.40;67.90;;;;;;5076613;28;20147;-89
2021/07/02 12:16:08;;;;;;;9.13;7.65;;;22.40;66.90;;;;;;5076427;28;20179;-89
2021/07/02 12:18:39;;;;;;;19.55;8.60;;;22.30;65.30;;;;;;5076748;28;20276;-89
2021/07/02 12:21:10;;;;;;;12.68;9.23;;;22.30;67.00;;;;;;5076272;28;20187;-89
2021/07/02 12:23:41;;;;;;;16.58;8.50;;;22.30;67.90;;;;;;5058352;28;20164;-90
2021/07/02 12:26:18;;;;;;;14.00;7.88;;;22.60;66.60;;;;;;5058025;28;20170;-89
2021/07/02 12:29:13;;;;;;;12.38;7.50;;;22.30;66.80;;;;;;5075830;28;20187;-89
2021/07/02 12:31:43;;;;;;;12.57;7.00;;;22.90;69.80;;;;;;5056685;28;20186;-90
2021/07/02 12:34:18;;;;;;;15.52;7.75;;;23.00;68.10;;;;;;5076223;28;20243;-89
2021/07/02 12:37:02;;;;;;;11.95;7.20;;;23.20;67.60;;;;;;5074851;28;20167;-90
2021/07/02 12:39:34;;;;;;;15.50;6.85;;;23.50;66.70;;;;;;5057753;28;20288;-90
2021/07/02 12:42:03;;;;;;;14.57;7.40;;;23.60;66.10;;;;;;5057120;28;20662;-90
2021/07/02 12:44:31;;;;;;;13.88;6.85;;;23.40;66.00;;;;;;5058482;28;20176;-90
2021/07/02 12:46:57;;;;;;;12.63;7.13;;;23.20;67.20;;;;;;5075865;28;20639;-89
2021/07/02 12:49:35;;;;;;;10.43;7.10;;;23.40;67.70;;;;;;5075637;28;20183;-90
2021/07/02 12:54:47;;;;;;;12.00;7.38;;;23.50;68.20;;;;;;5075674;28;20696;-89
2021/07/02 12:57:27;;;;;;;14.30;7.32;;;23.40;65.80;;;;;;5075562;28;20185;-89
2021/07/02 12:59:54;;;;;;;14.68;7.05;;;23.30;65.10;;;;;;5075913;28;20175;-89
2021/07/02 13:02:26;;;;;;;12.65;7.03;;;23.30;65.60;;;;;;5057387;28;20175;-90
2021/07/02 13:04:52;;;;;;;18.42;7.65;;;23.50;66.70;;;;;;5075594;28;20172;-90
2021/07/02 13:07:18;;;;;;;13.05;7.55;;;23.40;66.90;;;;;;5075424;28;20199;-90
2021/07/02 13:09:44;;;;;;;11.40;7.50;;;23.30;66.90;;;;;;5075172;28;20704;-89
2021/07/02 13:12:15;;;;;;;12.05;8.27;;;23.10;67.50;;;;;;5075297;28;20179;-89
2021/07/02 13:14:43;;;;;;;15.55;6.78;;;22.80;68.60;;;;;;5075464;28;20190;-89
2021/07/02 13:17:12;;;;;;;12.85;7.15;;;22.80;69.30;;;;;;5075032;28;20217;-89
2021/07/02 13:19:38;;;;;;;18.48;7.90;;;22.70;68.60;;;;;;5057190;28;20670;-89
2021/07/02 13:22:31;;;;;;;16.08;7.50;;;22.90;68.80;;;;;;5074899;28;20171;-89
2021/07/02 13:25:03;;;;;;;12.10;6.90;;;23.10;67.70;;;;;;5054952;28;20179;-89
2021/07/02 13:27:29;;;;;;;12.73;7.75;;;23.30;66.50;;;;;;5057098;28;20583;-89
2021/07/02 13:37:08;;;;;;;12.43;7.18;;;22.30;69.60;;;;;;5012406;28;20188;-88
2021/07/02 13:39:45;;;;;;;10.32;6.80;;;22.50;68.70;;;;;;5047051;28;20229;-88
2021/07/02 13:42:27;;;;;;;15.90;6.80;;;22.40;68.80;;;;;;5074632;28;20155;-88
2021/07/02 13:44:57;;;;;;;17.65;7.40;;;22.50;68.60;;;;;;5074503;28;20178;-88
2021/07/02 13:47:31;;;;;;;11.23;6.10;;;22.90;69.20;;;;;;5056417;28;20180;-88
2021/07/02 13:51:02;;;;;;;11.55;6.97;;;23.40;67.70;;;;;;5074336;28;20179;-89
2021/07/02 13:53:36;;;;;;;13.15;6.47;;;23.50;65.70;;;;;;5072365;28;20265;-88
2021/07/02 13:56:31;;;;;;;11.95;6.82;;;23.40;64.00;;;;;;5074414;28;20194;-88
2021/07/02 13:59:02;;;;;;;9.18;6.70;;;22.90;65.80;;;;;;5060622;28;20246;-88
2021/07/02 14:01:28;;;;;;;10.95;5.93;;;22.80;67.20;;;;;;5074385;28;20720;-88
2021/07/02 14:04:36;;;;;;;15.00;6.47;;;22.80;68.00;;;;;;5056117;28;20175;-89
2021/07/02 14:07:03;;;;;;;14.07;6.82;;;22.90;66.90;;;;;;5055860;28;20203;-88
2021/07/02 14:09:28;;;;;;;14.40;6.57;;;23.00;65.70;;;;;;5074031;28;20203;-89
2021/07/02 14:12:33;;;;;;;12.00;5.85;;;23.00;66.20;;;;;;5073899;28;20160;-88
2021/07/02 14:15:12;;;;;;;13.15;5.88;;;23.00;66.50;;;;;;5056957;28;20182;-88
2021/07/02 14:17:38;;;;;;;8.07;5.50;;;23.20;65.30;;;;;;5074046;28;20187;-88
2021/07/02 14:20:04;;;;;;;9.73;6.50;;;23.20;65.00;;;;;;5055849;28;20282;-88
2021/07/02 14:22:29;;;;;;;9.57;5.93;;;22.90;65.50;;;;;;5073647;28;20163;-88
2021/07/02 14:24:55;;;;;;;11.13;5.88;;;22.70;66.10;;;;;;5073760;28;20167;-88
2021/07/02 14:27:21;;;;;;;9.52;5.63;;;22.70;66.30;;;;;;5073647;28;20168;-88
2021/07/02 14:29:48;;;;;;;13.98;6.03;;;22.70;66.50;;;;;;5073647;28;20171;-89
2021/07/02 14:32:14;;;;;;;13.50;5.63;;;22.50;66.60;;;;;;5055968;28;20179;-89
2021/07/02 14:34:39;;;;;;;9.13;5.20;;;22.70;66.90;;;;;;5073714;28;20178;-89
2021/07/02 14:37:05;;;;;;;8.32;5.70;;;23.00;63.90;;;;;;5055958;28;20205;-89
2021/07/02 14:39:31;;;;;;;14.35;5.50;;;23.30;65.00;;;;;;5073452;28;20175;-88
2021/07/02 14:41:57;;;;;;;9.90;5.32;;;23.20;64.80;;;;;;5073404;28;20182;-89
2021/07/02 14:44:22;;;;;;;11.55;5.20;;;23.20;63.70;;;;;;5056091;28;20171;-88
2021/07/02 14:46:48;;;;;;;11.60;5.18;;;22.90;65.20;;;;;;5073510;28;20693;-89
2021/07/02 14:49:13;;;;;;;11.77;5.18;;;23.20;63.70;;;;;;5055945;28;20195;-89
2021/07/02 14:51:39;;;;;;;9.20;4.82;;;23.30;64.40;;;;;;5055544;28;20171;-89
2021/07/02 14:54:05;;;;;;;11.20;4.80;;;23.30;63.20;;;;;;5073551;28;20175;-89
2021/07/02 14:56:33;;;;;;;12.68;5.38;;;23.40;63.30;;;;;;5073435;28;20182;-89
2021/07/02 14:58:59;;;;;;;14.02;4.60;;;23.20;64.90;;;;;;5055257;28;20211;-89
2021/07/02 15:01:24;;;;;;;16.95;4.93;;;23.40;62.30;;;;;;5073324;28;20199;-89
2021/07/02 15:03:50;;;;;;;7.60;4.90;;;23.20;63.60;;;;;;5075524;28;20167;-89
2021/07/02 15:06:15;;;;;;;9.50;5.15;;;23.30;63.90;;;;;;5079955;28;20171;-88
2021/07/02 15:08:41;;;;;;;8.07;5.10;;;23.60;63.20;;;;;;5080368;28;20191;-88
2021/07/02 15:11:07;;;;;;;11.90;4.78;;;23.70;61.60;;;;;;5061976;28;20175;-89
2021/07/02 15:13:33;;;;;;;13.15;5.15;;;23.90;61.00;;;;;;5062386;28;20177;-89
2021/07/02 15:15:59;;;;;;;9.38;4.57;;;23.80;62.60;;;;;;5062170;28;20270;-88
2021/07/02 15:18:25;;;;;;;8.60;4.53;;;23.80;61.60;;;;;;5079786;28;20628;-88
2021/07/02 15:20:51;;;;;;;9.65;4.53;;;24.00;62.20;;;;;;5079824;28;20190;-89
2021/07/02 15:23:16;;;;;;;12.10;5.03;;;23.80;60.10;;;;;;5062000;28;20700;-89
2021/07/02 15:25:42;;;;;;;9.98;5.53;;;23.50;62.80;;;;;;5079899;28;20168;-88
2021/07/02 15:28:08;;;;;;;11.63;5.80;;;23.60;62.50;;;;;;5062319;28;20739;-88
2021/07/02 15:31:11;;;;;;;10.65;5.10;;;23.70;63.00;;;;;;5080187;28;20171;-88
2021/07/02 15:33:38;;;;;;;7.53;4.53;;;23.50;63.00;;;;;;5062266;28;20179;-88
2021/07/02 15:36:05;;;;;;;9.43;4.97;;;23.30;62.40;;;;;;5062871;28;20185;-88
2021/07/02 15:38:33;;;;;;;7.60;5.03;;;23.00;61.40;;;;;;5062000;28;20195;-88
2021/07/02 15:40:59;;;;;;;7.95;5.15;;;23.00;63.80;;;;;;5061549;28;20801;-88
2021/07/02 15:43:24;;;;;;;9.85;4.90;;;23.60;63.00;;;;;;5061966;28;20187;-88
2021/07/02 15:45:50;;;;;;;10.63;4.68;;;23.70;61.30;;;;;;5079533;28;20174;-88
2021/07/02 15:48:16;;;;;;;7.60;4.00;;;23.60;61.70;;;;;;5079539;28;20556;-87
2021/07/02 15:50:42;;;;;;;6.70;3.95;;;23.70;60.60;;;;;;5079921;28;20304;-88
2021/07/02 15:53:07;;;;;;;12.25;4.75;;;23.80;61.90;;;;;;5061664;28;20309;-88
2021/07/02 15:55:33;;;;;;;8.88;4.55;;;23.90;60.80;;;;;;5061652;28;20229;-88
2021/07/02 15:57:59;;;;;;;8.90;4.95;;;23.90;61.40;;;;;;5061786;28;20226;-87
2021/07/02 16:00:24;;;;;;;7.68;4.03;;;23.60;61.00;;;;;;5061554;28;20206;-87
2021/07/02 16:02:50;;;;;;;10.95;4.90;;;23.70;60.50;;;;;;5061493;28;20543;-86
2021/07/02 16:05:17;;;;;;;9.07;4.47;;;23.90;60.60;;;;;;5061384;28;20191;-86
2021/07/02 16:07:42;;;;;;;8.98;4.45;;;23.40;61.40;;;;;;5062055;28;20199;-86
2021/07/02 16:10:08;;;;;;;8.43;4.15;;;23.70;60.80;;;;;;5079216;28;20190;-86
2021/07/02 16:12:34;;;;;;;9.38;4.15;;;23.80;60.30;;;;;;5079152;28;20175;-86
2021/07/02 16:15:02;;;;;;;8.07;4.60;;;23.80;60.00;;;;;;5078400;28;20639;-86
2021/07/02 16:17:28;;;;;;;13.75;4.82;;;23.90;59.40;;;;;;5075246;28;20191;-86
2021/07/02 16:19:53;;;;;;;11.80;4.82;;;23.80;60.40;;;;;;5057931;28;20196;-86
2021/07/02 16:22:19;;;;;;;8.57;4.65;;;23.50;60.50;;;;;;5075870;28;20174;-86
2021/07/02 16:24:44;;;;;;;9.45;4.43;;;23.20;61.10;;;;;;5057926;28;20269;-86
2021/07/02 16:27:10;;;;;;;6.70;3.80;;;23.40;60.80;;;;;;5057919;28;20171;-86
2021/07/02 16:29:36;;;;;;;9.35;4.43;;;23.50;61.10;;;;;;5057877;28;20666;-86
2021/07/02 16:32:01;;;;;;;12.35;4.75;;;23.20;61.90;;;;;;5075762;28;20199;-86
2021/07/02 16:34:27;;;;;;;5.00;3.58;;;23.20;61.00;;;;;;5058022;28;20627;-85
2021/07/02 16:36:52;;;;;;;9.07;4.53;;;23.40;60.10;;;;;;5057715;28;20171;-86
2021/07/02 16:39:18;;;;;;;8.07;3.72;;;23.20;60.10;;;;;;5057966;28;20229;-86
2021/07/02 16:41:44;;;;;;;9.38;4.35;;;23.20;59.20;;;;;;5057626;28;20567;-86
2021/07/02 16:44:10;;;;;;;4.90;3.75;;;23.00;61.10;;;;;;5057682;28;20639;-86
2021/07/02 16:46:35;;;;;;;7.82;4.32;;;23.00;59.30;;;;;;5057527;28;20184;-86
2021/07/02 16:49:01;;;;;;;7.20;3.85;;;23.10;59.50;;;;;;5075488;28;20187;-86
2021/07/02 16:51:29;;;;;;;10.30;4.55;;;23.10;60.00;;;;;;5075673;28;20172;-86
2021/07/02 16:53:55;;;;;;;12.35;4.63;;;23.00;60.30;;;;;;5075608;28;20182;-86
2021/07/02 16:56:21;;;;;;;10.93;4.40;;;23.10;60.80;;;;;;5057456;28;20183;-86
2021/07/02 16:58:46;;;;;;;6.28;3.80;;;22.80;60.30;;;;;;5057326;28;20623;-86